sensor_id;sensor_type;location;lat;lon;timestamp;P1;durP1;ratioP1;P2;durP2;ratioP2
58460;SDS011;45558;37.752;-97.822;2023-07-13T00:00:12;11.65;;;3.05;;
58460;SDS011;45558;37.752;-97.822;2023-07-13T00:02:41;7.43;;;1.88;;
58460;SDS011;45558;37.752;-97.822;2023-07-13T00:05:07;12.60;;;4.10;;
58460;SDS011;45558;37.752;-97.822;2023-07-13T00:07:32;13.10;;;3.97;;
58460;SDS011;45558;37.752;-97.822;2023-07-13T00:09:58;10.82;;;4.38;;
58460;SDS011;45558;37.752;-97.822;2023-07-13T00:12:25;12.68;;;4.35;;
58460;SDS011;45558;37.752;-97.822;2023-07-13T00:14:56;6.57;;;1.58;;
58460;SDS011;45558;37.752;-97.822;2023-07-13T00:17:22;6.80;;;1.13;;
58460;SDS011;45558;37.752;-97.822;2023-07-13T00:19:48;7.68;;;1.70;;
58460;SDS011;45558;37.752;-97.822;2023-07-13T00:22:14;13.10;;;1.70;;
58460;SDS011;45558;37.752;-97.822;2023-07-13T00:24:39;8.55;;;1.58;;
58460;SDS011;45558;37.752;-97.822;2023-07-13T00:27:07;31.90;;;12.98;;
58460;SDS011;45558;37.752;-97.822;2023-07-13T00:29:35;9.65;;;3.33;;
58460;SDS011;45558;37.752;-97.822;2023-07-13T00:32:02;7.65;;;1.50;;
58460;SDS011;45558;37.752;-97.822;2023-07-13T00:36:57;4.35;;;1.02;;
58460;SDS011;45558;37.752;-97.822;2023-07-13T00:39:22;9.77;;;1.50;;
58460;SDS011;45558;37.752;-97.822;2023-07-13T00:41:48;7.38;;;2.58;;
58460;SDS011;45558;37.752;-97.822;2023-07-13T00:44:14;5.40;;;1.42;;
58460;SDS011;45558;37.752;-97.822;2023-07-13T00:46:40;6.80;;;1.40;;
58460;SDS011;45558;37.752;-97.822;2023-07-13T00:49:07;9.18;;;1.90;;
58460;SDS011;45558;37.752;-97.822;2023-07-13T00:51:39;8.05;;;1.80;;
58460;SDS011;45558;37.752;-97.822;2023-07-13T00:54:09;8.82;;;2.15;;
58460;SDS011;45558;37.752;-97.822;2023-07-13T00:56:37;6.28;;;1.55;;
58460;SDS011;45558;37.752;-97.822;2023-07-13T00:59:03;7.22;;;1.73;;
58460;SDS011;45558;37.752;-97.822;2023-07-13T01:01:30;9.15;;;1.52;;
58460;SDS011;45558;37.752;-97.822;2023-07-13T01:03:55;7.38;;;1.67;;
58460;SDS011;45558;37.752;-97.822;2023-07-13T01:06:22;3.70;;;1.25;;
58460;SDS011;45558;37.752;-97.822;2023-07-13T01:08:47;7.10;;;1.50;;
58460;SDS011;45558;37.752;-97.822;2023-07-13T01:11:17;7.80;;;1.65;;
58460;SDS011;45558;37.752;-97.822;2023-07-13T01:13:45;5.97;;;1.73;;
58460;SDS011;45558;37.752;-97.822;2023-07-13T01:16:17;6.32;;;1.98;;
58460;SDS011;45558;37.752;-97.822;2023-07-13T01:18:47;8.82;;;4.03;;
58460;SDS011;45558;37.752;-97.822;2023-07-13T01:21:12;8.07;;;4.00;;
58460;SDS011;45558;37.752;-97.822;2023-07-13T01:23:38;6.65;;;2.50;;
58460;SDS011;45558;37.752;-97.822;2023-07-13T01:26:05;6.43;;;2.22;;
58460;SDS011;45558;37.752;-97.822;2023-07-13T01:28:30;5.93;;;2.08;;
58460;SDS011;45558;37.752;-97.822;2023-07-13T01:30:57;8.88;;;1.80;;
58460;SDS011;45558;37.752;-97.822;2023-07-13T01:33:23;4.85;;;2.25;;
58460;SDS011;45558;37.752;-97.822;2023-07-13T01:35:51;4.10;;;1.85;;
58460;SDS011;45558;37.752;-97.822;2023-07-13T01:38:19;11.63;;;2.78;;
58460;SDS011;45558;37.752;-97.822;2023-07-13T01:40:46;7.30;;;2.67;;
58460;SDS011;45558;37.752;-97.822;2023-07-13T01:43:12;18.15;;;5.90;;
58460;SDS011;45558;37.752;-97.822;2023-07-13T01:45:38;8.15;;;4.13;;
58460;SDS011;45558;37.752;-97.822;2023-07-13T01:48:03;10.35;;;4.45;;
58460;SDS011;45558;37.752;-97.822;2023-07-13T01:50:31;10.05;;;3.63;;
58460;SDS011;45558;37.752;-97.822;2023-07-13T01:52:57;18.15;;;5.82;;
58460;SDS011;45558;37.752;-97.822;2023-07-13T01:55:22;26.58;;;8.57;;
58460;SDS011;45558;37.752;-97.822;2023-07-13T01:57:48;46.83;;;16.38;;
58460;SDS011;45558;37.752;-97.822;2023-07-13T02:00:14;31.20;;;11.57;;
58460;SDS011;45558;37.752;-97.822;2023-07-13T02:02:39;19.92;;;7.97;;
58460;SDS011;45558;37.752;-97.822;2023-07-13T02:05:05;23.08;;;10.07;;
58460;SDS011;45558;37.752;-97.822;2023-07-13T02:07:31;14.18;;;6.72;;
58460;SDS011;45558;37.752;-97.822;2023-07-13T02:09:57;10.80;;;4.72;;
58460;SDS011;45558;37.752;-97.822;2023-07-13T02:12:22;13.18;;;4.90;;
58460;SDS011;45558;37.752;-97.822;2023-07-13T02:14:48;20.52;;;7.38;;
58460;SDS011;45558;37.752;-97.822;2023-07-13T02:17:13;25.10;;;16.10;;
58460;SDS011;45558;37.752;-97.822;2023-07-13T02:19:39;16.67;;;4.82;;
58460;SDS011;45558;37.752;-97.822;2023-07-13T02:22:05;17.60;;;5.63;;
58460;SDS011;45558;37.752;-97.822;2023-07-13T02:24:31;20.05;;;7.40;;
58460;SDS011;45558;37.752;-97.822;2023-07-13T02:26:57;15.60;;;5.50;;
58460;SDS011;45558;37.752;-97.822;2023-07-13T02:29:23;10.85;;;4.90;;
58460;SDS011;45558;37.752;-97.822;2023-07-13T02:31:49;15.23;;;4.38;;
58460;SDS011;45558;37.752;-97.822;2023-07-13T02:34:14;6.22;;;3.15;;
58460;SDS011;45558;37.752;-97.822;2023-07-13T02:36:40;9.20;;;3.10;;
58460;SDS011;45558;37.752;-97.822;2023-07-13T02:39:06;9.38;;;2.70;;
58460;SDS011;45558;37.752;-97.822;2023-07-13T02:41:31;8.13;;;2.08;;
58460;SDS011;45558;37.752;-97.822;2023-07-13T02:43:57;9.27;;;2.10;;
58460;SDS011;45558;37.752;-97.822;2023-07-13T02:46:32;6.60;;;2.17;;
58460;SDS011;45558;37.752;-97.822;2023-07-13T02:48:58;11.10;;;2.67;;
58460;SDS011;45558;37.752;-97.822;2023-07-13T02:51:24;5.90;;;2.60;;
58460;SDS011;45558;37.752;-97.822;2023-07-13T02:53:49;5.78;;;2.30;;
58460;SDS011;45558;37.752;-97.822;2023-07-13T02:56:15;6.15;;;2.17;;
58460;SDS011;45558;37.752;-97.822;2023-07-13T02:58:40;6.03;;;2.13;;
58460;SDS011;45558;37.752;-97.822;2023-07-13T03:01:07;7.53;;;2.53;;
58460;SDS011;45558;37.752;-97.822;2023-07-13T03:03:33;4.65;;;2.30;;
58460;SDS011;45558;37.752;-97.822;2023-07-13T03:06:01;3.45;;;2.25;;
58460;SDS011;45558;37.752;-97.822;2023-07-13T03:08:28;8.35;;;2.38;;
58460;SDS011;45558;37.752;-97.822;2023-07-13T03:11:03;8.43;;;3.35;;
58460;SDS011;45558;37.752;-97.822;2023-07-13T03:13:30;8.80;;;2.28;;
58460;SDS011;45558;37.752;-97.822;2023-07-13T03:15:56;5.35;;;2.63;;
58460;SDS011;45558;37.752;-97.822;2023-07-13T03:18:21;6.32;;;2.45;;
58460;SDS011;45558;37.752;-97.822;2023-07-13T03:20:49;4.53;;;2.13;;
58460;SDS011;45558;37.752;-97.822;2023-07-13T03:23:15;5.10;;;2.70;;
58460;SDS011;45558;37.752;-97.822;2023-07-13T03:25:42;7.35;;;3.35;;
58460;SDS011;45558;37.752;-97.822;2023-07-13T03:28:10;8.18;;;3.03;;
58460;SDS011;45558;37.752;-97.822;2023-07-13T03:30:36;9.07;;;3.05;;
58460;SDS011;45558;37.752;-97.822;2023-07-13T03:33:03;10.52;;;3.20;;
58460;SDS011;45558;37.752;-97.822;2023-07-13T03:35:29;9.30;;;3.83;;
58460;SDS011;45558;37.752;-97.822;2023-07-13T03:37:54;37.45;;;13.73;;
58460;SDS011;45558;37.752;-97.822;2023-07-13T03:40:20;47.97;;;17.98;;
58460;SDS011;45558;37.752;-97.822;2023-07-13T03:42:46;30.27;;;11.85;;
58460;SDS011;45558;37.752;-97.822;2023-07-13T03:45:13;29.73;;;9.60;;
58460;SDS011;45558;37.752;-97.822;2023-07-13T03:47:38;9.10;;;4.20;;
58460;SDS011;45558;37.752;-97.822;2023-07-13T03:50:03;10.68;;;3.90;;
58460;SDS011;45558;37.752;-97.822;2023-07-13T03:52:29;7.88;;;3.35;;
58460;SDS011;45558;37.752;-97.822;2023-07-13T03:54:55;6.82;;;3.15;;
58460;SDS011;45558;37.752;-97.822;2023-07-13T03:57:20;3.05;;;2.25;;
58460;SDS011;45558;37.752;-97.822;2023-07-13T03:59:46;7.40;;;2.85;;
58460;SDS011;45558;37.752;-97.822;2023-07-13T04:02:11;8.63;;;2.85;;
58460;SDS011;45558;37.752;-97.822;2023-07-13T04:04:36;6.53;;;2.30;;
58460;SDS011;45558;37.752;-97.822;2023-07-13T04:07:03;6.03;;;2.22;;
58460;SDS011;45558;37.752;-97.822;2023-07-13T04:09:29;5.55;;;2.08;;
58460;SDS011;45558;37.752;-97.822;2023-07-13T04:11:55;4.25;;;2.13;;
58460;SDS011;45558;37.752;-97.822;2023-07-13T04:14:20;6.30;;;2.47;;
58460;SDS011;45558;37.752;-97.822;2023-07-13T04:16:46;5.03;;;2.35;;
58460;SDS011;45558;37.752;-97.822;2023-07-13T04:19:12;7.35;;;2.20;;
58460;SDS011;45558;37.752;-97.822;2023-07-13T04:21:38;5.07;;;2.45;;
58460;SDS011;45558;37.752;-97.822;2023-07-13T04:24:03;5.10;;;2.33;;
58460;SDS011;45558;37.752;-97.822;2023-07-13T04:26:29;2.97;;;2.20;;
58460;SDS011;45558;37.752;-97.822;2023-07-13T04:28:55;3.97;;;2.10;;
58460;SDS011;45558;37.752;-97.822;2023-07-13T04:31:20;4.95;;;2.25;;
58460;SDS011;45558;37.752;-97.822;2023-07-13T04:33:46;3.10;;;1.95;;
58460;SDS011;45558;37.752;-97.822;2023-07-13T04:36:12;2.35;;;1.98;;
58460;SDS011;45558;37.752;-97.822;2023-07-13T04:38:37;3.63;;;2.10;;
58460;SDS011;45558;37.752;-97.822;2023-07-13T04:41:04;5.20;;;2.20;;
58460;SDS011;45558;37.752;-97.822;2023-07-13T04:43:31;5.47;;;1.83;;
58460;SDS011;45558;37.752;-97.822;2023-07-13T04:45:56;7.32;;;2.25;;
58460;SDS011;45558;37.752;-97.822;2023-07-13T04:48:22;4.47;;;1.90;;
58460;SDS011;45558;37.752;-97.822;2023-07-13T04:50:54;12.10;;;8.98;;
58460;SDS011;45558;37.752;-97.822;2023-07-13T04:53:20;3.75;;;1.95;;
58460;SDS011;45558;37.752;-97.822;2023-07-13T04:55:45;2.47;;;1.60;;
58460;SDS011;45558;37.752;-97.822;2023-07-13T04:58:12;4.80;;;2.00;;
58460;SDS011;45558;37.752;-97.822;2023-07-13T05:00:37;4.20;;;1.90;;
58460;SDS011;45558;37.752;-97.822;2023-07-13T05:03:02;3.47;;;1.50;;
58460;SDS011;45558;37.752;-97.822;2023-07-13T05:05:28;2.67;;;1.77;;
58460;SDS011;45558;37.752;-97.822;2023-07-13T05:07:53;2.65;;;1.50;;
58460;SDS011;45558;37.752;-97.822;2023-07-13T05:10:19;4.53;;;2.00;;
58460;SDS011;45558;37.752;-97.822;2023-07-13T05:12:46;5.20;;;1.65;;
58460;SDS011;45558;37.752;-97.822;2023-07-13T05:15:11;4.55;;;1.92;;
58460;SDS011;45558;37.752;-97.822;2023-07-13T05:17:37;3.22;;;2.10;;
58460;SDS011;45558;37.752;-97.822;2023-07-13T05:20:04;3.97;;;1.67;;
58460;SDS011;45558;37.752;-97.822;2023-07-13T05:22:30;4.47;;;2.05;;
58460;SDS011;45558;37.752;-97.822;2023-07-13T05:24:56;3.92;;;1.80;;
58460;SDS011;45558;37.752;-97.822;2023-07-13T05:27:21;8.05;;;1.92;;
58460;SDS011;45558;37.752;-97.822;2023-07-13T05:29:48;5.05;;;2.13;;
58460;SDS011;45558;37.752;-97.822;2023-07-13T05:32:14;3.47;;;1.95;;
58460;SDS011;45558;37.752;-97.822;2023-07-13T05:34:39;3.92;;;2.10;;
58460;SDS011;45558;37.752;-97.822;2023-07-13T05:37:05;4.93;;;1.90;;
58460;SDS011;45558;37.752;-97.822;2023-07-13T05:39:30;7.93;;;2.30;;
58460;SDS011;45558;37.752;-97.822;2023-07-13T05:41:55;4.32;;;1.70;;
58460;SDS011;45558;37.752;-97.822;2023-07-13T05:44:21;7.53;;;2.15;;
58460;SDS011;45558;37.752;-97.822;2023-07-13T05:46:46;4.38;;;1.92;;
58460;SDS011;45558;37.752;-97.822;2023-07-13T05:49:12;7.60;;;2.70;;
58460;SDS011;45558;37.752;-97.822;2023-07-13T05:51:37;4.40;;;2.30;;
58460;SDS011;45558;37.752;-97.822;2023-07-13T05:54:02;6.32;;;1.90;;
58460;SDS011;45558;37.752;-97.822;2023-07-13T05:56:28;6.72;;;2.33;;
58460;SDS011;45558;37.752;-97.822;2023-07-13T05:58:54;11.65;;;1.77;;
58460;SDS011;45558;37.752;-97.822;2023-07-13T06:01:19;8.32;;;2.40;;
58460;SDS011;45558;37.752;-97.822;2023-07-13T06:03:45;7.90;;;1.92;;
58460;SDS011;45558;37.752;-97.822;2023-07-13T06:06:11;5.93;;;2.15;;
58460;SDS011;45558;37.752;-97.822;2023-07-13T06:08:37;8.65;;;2.08;;
58460;SDS011;45558;37.752;-97.822;2023-07-13T06:11:08;8.43;;;2.38;;
58460;SDS011;45558;37.752;-97.822;2023-07-13T06:13:37;2.90;;;1.63;;
58460;SDS011;45558;37.752;-97.822;2023-07-13T06:16:03;4.45;;;1.98;;
58460;SDS011;45558;37.752;-97.822;2023-07-13T06:18:31;9.20;;;2.25;;
58460;SDS011;45558;37.752;-97.822;2023-07-13T06:20:57;5.95;;;2.15;;
58460;SDS011;45558;37.752;-97.822;2023-07-13T06:23:23;9.07;;;2.05;;
58460;SDS011;45558;37.752;-97.822;2023-07-13T06:25:49;13.15;;;2.30;;
58460;SDS011;45558;37.752;-97.822;2023-07-13T06:28:14;9.65;;;2.85;;
58460;SDS011;45558;37.752;-97.822;2023-07-13T06:30:40;9.73;;;2.00;;
58460;SDS011;45558;37.752;-97.822;2023-07-13T06:33:06;7.88;;;2.15;;
58460;SDS011;45558;37.752;-97.822;2023-07-13T06:35:31;8.82;;;2.60;;
58460;SDS011;45558;37.752;-97.822;2023-07-13T06:37:56;6.90;;;2.97;;
58460;SDS011;45558;37.752;-97.822;2023-07-13T06:40:22;9.90;;;2.63;;
58460;SDS011;45558;37.752;-97.822;2023-07-13T06:42:47;12.40;;;2.33;;
58460;SDS011;45558;37.752;-97.822;2023-07-13T06:45:14;13.93;;;2.85;;
58460;SDS011;45558;37.752;-97.822;2023-07-13T06:47:39;7.93;;;2.10;;
58460;SDS011;45558;37.752;-97.822;2023-07-13T06:50:06;10.35;;;2.53;;
58460;SDS011;45558;37.752;-97.822;2023-07-13T06:52:32;8.63;;;3.17;;
58460;SDS011;45558;37.752;-97.822;2023-07-13T06:54:58;8.77;;;2.42;;
58460;SDS011;45558;37.752;-97.822;2023-07-13T06:57:23;12.50;;;2.70;;
58460;SDS011;45558;37.752;-97.822;2023-07-13T06:59:48;3.75;;;2.05;;
58460;SDS011;45558;37.752;-97.822;2023-07-13T07:02:14;5.00;;;2.05;;
58460;SDS011;45558;37.752;-97.822;2023-07-13T07:04:39;7.50;;;2.05;;
58460;SDS011;45558;37.752;-97.822;2023-07-13T07:07:05;5.40;;;2.47;;
58460;SDS011;45558;37.752;-97.822;2023-07-13T07:09:30;9.70;;;2.58;;
58460;SDS011;45558;37.752;-97.822;2023-07-13T07:11:56;7.75;;;2.40;;
58460;SDS011;45558;37.752;-97.822;2023-07-13T07:14:22;4.65;;;2.08;;
58460;SDS011;45558;37.752;-97.822;2023-07-13T07:16:47;4.10;;;2.03;;
58460;SDS011;45558;37.752;-97.822;2023-07-13T07:19:12;7.70;;;2.50;;
58460;SDS011;45558;37.752;-97.822;2023-07-13T07:21:38;8.98;;;2.05;;
58460;SDS011;45558;37.752;-97.822;2023-07-13T07:24:04;5.10;;;2.20;;
58460;SDS011;45558;37.752;-97.822;2023-07-13T07:26:30;6.22;;;2.88;;
58460;SDS011;45558;37.752;-97.822;2023-07-13T07:28:56;5.10;;;2.05;;
58460;SDS011;45558;37.752;-97.822;2023-07-13T07:31:21;9.07;;;2.17;;
58460;SDS011;45558;37.752;-97.822;2023-07-13T07:33:46;5.35;;;2.38;;
58460;SDS011;45558;37.752;-97.822;2023-07-13T07:36:14;11.80;;;2.58;;
58460;SDS011;45558;37.752;-97.822;2023-07-13T07:38:40;6.80;;;2.20;;
58460;SDS011;45558;37.752;-97.822;2023-07-13T07:41:06;7.95;;;2.67;;
58460;SDS011;45558;37.752;-97.822;2023-07-13T07:43:31;6.95;;;2.25;;
58460;SDS011;45558;37.752;-97.822;2023-07-13T07:45:57;9.15;;;2.50;;
58460;SDS011;45558;37.752;-97.822;2023-07-13T07:48:22;10.13;;;2.47;;
58460;SDS011;45558;37.752;-97.822;2023-07-13T07:50:48;5.32;;;2.40;;
58460;SDS011;45558;37.752;-97.822;2023-07-13T07:53:13;9.13;;;2.10;;
58460;SDS011;45558;37.752;-97.822;2023-07-13T07:55:39;7.15;;;2.13;;
58460;SDS011;45558;37.752;-97.822;2023-07-13T07:58:05;8.10;;;2.08;;
58460;SDS011;45558;37.752;-97.822;2023-07-13T08:00:30;6.88;;;1.90;;
58460;SDS011;45558;37.752;-97.822;2023-07-13T08:02:57;5.40;;;2.63;;
58460;SDS011;45558;37.752;-97.822;2023-07-13T08:05:22;6.32;;;2.55;;
58460;SDS011;45558;37.752;-97.822;2023-07-13T08:07:48;5.53;;;2.58;;
58460;SDS011;45558;37.752;-97.822;2023-07-13T08:10:13;9.02;;;2.28;;
58460;SDS011;45558;37.752;-97.822;2023-07-13T08:12:39;6.07;;;1.90;;
58460;SDS011;45558;37.752;-97.822;2023-07-13T08:15:06;12.95;;;2.53;;
58460;SDS011;45558;37.752;-97.822;2023-07-13T08:17:34;7.78;;;2.05;;
58460;SDS011;45558;37.752;-97.822;2023-07-13T08:19:59;12.88;;;2.90;;
58460;SDS011;45558;37.752;-97.822;2023-07-13T08:22:26;8.32;;;2.22;;
58460;SDS011;45558;37.752;-97.822;2023-07-13T08:24:52;4.97;;;2.05;;
58460;SDS011;45558;37.752;-97.822;2023-07-13T08:27:21;9.32;;;2.25;;
58460;SDS011;45558;37.752;-97.822;2023-07-13T08:29:50;7.95;;;1.80;;
58460;SDS011;45558;37.752;-97.822;2023-07-13T08:32:17;4.63;;;1.52;;
58460;SDS011;45558;37.752;-97.822;2023-07-13T08:34:43;17.40;;;9.65;;
58460;SDS011;45558;37.752;-97.822;2023-07-13T08:37:09;4.00;;;1.60;;
58460;SDS011;45558;37.752;-97.822;2023-07-13T08:39:34;8.25;;;2.72;;
58460;SDS011;45558;37.752;-97.822;2023-07-13T08:42:05;7.40;;;1.80;;
58460;SDS011;45558;37.752;-97.822;2023-07-13T08:47:40;9.70;;;2.30;;
58460;SDS011;45558;37.752;-97.822;2023-07-13T08:50:15;6.75;;;2.05;;
58460;SDS011;45558;37.752;-97.822;2023-07-13T08:52:42;6.93;;;2.05;;
58460;SDS011;45558;37.752;-97.822;2023-07-13T08:55:13;5.85;;;1.80;;
58460;SDS011;45558;37.752;-97.822;2023-07-13T08:57:39;3.47;;;1.58;;
58460;SDS011;45558;37.752;-97.822;2023-07-13T09:00:09;8.65;;;1.88;;
58460;SDS011;45558;37.752;-97.822;2023-07-13T09:05:10;5.38;;;1.92;;
58460;SDS011;45558;37.752;-97.822;2023-07-13T09:10:31;5.43;;;1.60;;
58460;SDS011;45558;37.752;-97.822;2023-07-13T09:15:39;6.10;;;1.80;;
58460;SDS011;45558;37.752;-97.822;2023-07-13T09:18:09;4.65;;;1.75;;
58460;SDS011;45558;37.752;-97.822;2023-07-13T09:20:37;4.18;;;1.63;;
58460;SDS011;45558;37.752;-97.822;2023-07-13T09:23:10;5.13;;;1.80;;
58460;SDS011;45558;37.752;-97.822;2023-07-13T09:25:38;4.43;;;2.40;;
58460;SDS011;45558;37.752;-97.822;2023-07-13T09:28:10;5.22;;;1.80;;
58460;SDS011;45558;37.752;-97.822;2023-07-13T09:33:13;10.18;;;2.20;;
58460;SDS011;45558;37.752;-97.822;2023-07-13T09:35:40;4.65;;;1.45;;
58460;SDS011;45558;37.752;-97.822;2023-07-13T09:38:18;4.95;;;1.58;;
58460;SDS011;45558;37.752;-97.822;2023-07-13T09:41:06;3.55;;;1.42;;
58460;SDS011;45558;37.752;-97.822;2023-07-13T09:44:00;13.60;;;1.90;;
58460;SDS011;45558;37.752;-97.822;2023-07-13T09:48:56;8.57;;;1.70;;
58460;SDS011;45558;37.752;-97.822;2023-07-13T09:51:22;5.32;;;1.60;;
58460;SDS011;45558;37.752;-97.822;2023-07-13T09:53:50;6.82;;;1.80;;
58460;SDS011;45558;37.752;-97.822;2023-07-13T09:56:22;7.40;;;1.48;;
58460;SDS011;45558;37.752;-97.822;2023-07-13T09:58:49;12.95;;;3.47;;
58460;SDS011;45558;37.752;-97.822;2023-07-13T10:01:15;3.40;;;1.30;;
58460;SDS011;45558;37.752;-97.822;2023-07-13T10:03:51;6.53;;;1.70;;
58460;SDS011;45558;37.752;-97.822;2023-07-13T10:06:20;6.20;;;1.48;;
58460;SDS011;45558;37.752;-97.822;2023-07-13T10:08:55;3.75;;;1.35;;
58460;SDS011;45558;37.752;-97.822;2023-07-13T10:11:23;4.15;;;1.30;;
58460;SDS011;45558;37.752;-97.822;2023-07-13T10:13:58;3.63;;;1.13;;
58460;SDS011;45558;37.752;-97.822;2023-07-13T10:16:31;8.35;;;1.60;;
58460;SDS011;45558;37.752;-97.822;2023-07-13T10:19:10;4.63;;;1.30;;
58460;SDS011;45558;37.752;-97.822;2023-07-13T10:21:38;5.90;;;2.10;;
58460;SDS011;45558;37.752;-97.822;2023-07-13T10:24:15;2.65;;;1.20;;
58460;SDS011;45558;37.752;-97.822;2023-07-13T10:29:43;3.63;;;1.33;;
58460;SDS011;45558;37.752;-97.822;2023-07-13T10:32:19;9.18;;;1.70;;
58460;SDS011;45558;37.752;-97.822;2023-07-13T10:34:48;4.43;;;1.10;;
58460;SDS011;45558;37.752;-97.822;2023-07-13T10:37:16;5.90;;;1.40;;
58460;SDS011;45558;37.752;-97.822;2023-07-13T10:42:14;3.65;;;1.25;;
58460;SDS011;45558;37.752;-97.822;2023-07-13T10:44:42;2.53;;;1.40;;
58460;SDS011;45558;37.752;-97.822;2023-07-13T10:47:11;4.03;;;1.35;;
58460;SDS011;45558;37.752;-97.822;2023-07-13T10:49:40;3.78;;;0.95;;
58460;SDS011;45558;37.752;-97.822;2023-07-13T10:58:12;7.50;;;2.13;;
58460;SDS011;45558;37.752;-97.822;2023-07-13T11:03:22;2.92;;;1.30;;
58460;SDS011;45558;37.752;-97.822;2023-07-13T11:05:48;5.78;;;1.40;;
58460;SDS011;45558;37.752;-97.822;2023-07-13T11:11:02;4.20;;;1.10;;
58460;SDS011;45558;37.752;-97.822;2023-07-13T11:16:57;2.88;;;0.95;;
58460;SDS011;45558;37.752;-97.822;2023-07-13T11:24:56;9.60;;;1.45;;
58460;SDS011;45558;37.752;-97.822;2023-07-13T11:27:43;2.60;;;1.20;;
58460;SDS011;45558;37.752;-97.822;2023-07-13T11:30:24;3.47;;;0.95;;
58460;SDS011;45558;37.752;-97.822;2023-07-13T11:39:03;3.17;;;1.30;;
58460;SDS011;45558;37.752;-97.822;2023-07-13T11:41:54;5.07;;;1.40;;
58460;SDS011;45558;37.752;-97.822;2023-07-13T11:44:28;3.75;;;1.20;;
58460;SDS011;45558;37.752;-97.822;2023-07-13T11:46:56;3.67;;;1.13;;
58460;SDS011;45558;37.752;-97.822;2023-07-13T11:49:26;3.78;;;0.93;;
58460;SDS011;45558;37.752;-97.822;2023-07-13T11:51:55;3.70;;;1.20;;
58460;SDS011;45558;37.752;-97.822;2023-07-13T11:56:53;3.25;;;1.30;;
58460;SDS011;45558;37.752;-97.822;2023-07-13T11:59:25;1.98;;;1.23;;
58460;SDS011;45558;37.752;-97.822;2023-07-13T12:01:54;3.35;;;1.27;;
58460;SDS011;45558;37.752;-97.822;2023-07-13T12:04:27;2.60;;;1.30;;
58460;SDS011;45558;37.752;-97.822;2023-07-13T12:07:08;1.70;;;0.98;;
58460;SDS011;45558;37.752;-97.822;2023-07-13T12:09:40;4.07;;;1.45;;
58460;SDS011;45558;37.752;-97.822;2023-07-13T12:12:10;5.45;;;1.45;;
58460;SDS011;45558;37.752;-97.822;2023-07-13T12:14:37;4.13;;;1.48;;
58460;SDS011;45558;37.752;-97.822;2023-07-13T12:17:05;4.30;;;1.40;;
58460;SDS011;45558;37.752;-97.822;2023-07-13T12:19:50;2.42;;;1.30;;
58460;SDS011;45558;37.752;-97.822;2023-07-13T12:22:17;5.43;;;1.48;;
58460;SDS011;45558;37.752;-97.822;2023-07-13T12:24:43;4.38;;;1.48;;
58460;SDS011;45558;37.752;-97.822;2023-07-13T12:27:19;3.92;;;1.60;;
58460;SDS011;45558;37.752;-97.822;2023-07-13T12:29:50;5.38;;;1.83;;
58460;SDS011;45558;37.752;-97.822;2023-07-13T12:32:18;7.15;;;1.83;;
58460;SDS011;45558;37.752;-97.822;2023-07-13T12:34:57;2.85;;;1.58;;
58460;SDS011;45558;37.752;-97.822;2023-07-13T12:37:33;4.60;;;1.85;;
58460;SDS011;45558;37.752;-97.822;2023-07-13T12:40:00;3.65;;;1.65;;
58460;SDS011;45558;37.752;-97.822;2023-07-13T12:42:27;5.63;;;1.77;;
58460;SDS011;45558;37.752;-97.822;2023-07-13T12:45:12;5.18;;;1.73;;
58460;SDS011;45558;37.752;-97.822;2023-07-13T12:47:46;4.45;;;1.27;;
58460;SDS011;45558;37.752;-97.822;2023-07-13T12:50:15;3.95;;;1.40;;
58460;SDS011;45558;37.752;-97.822;2023-07-13T12:52:43;4.78;;;1.92;;
58460;SDS011;45558;37.752;-97.822;2023-07-13T12:55:12;3.55;;;1.83;;
58460;SDS011;45558;37.752;-97.822;2023-07-13T12:57:49;5.22;;;1.55;;
58460;SDS011;45558;37.752;-97.822;2023-07-13T13:00:25;3.25;;;1.55;;
58460;SDS011;45558;37.752;-97.822;2023-07-13T13:03:37;4.50;;;1.55;;
58460;SDS011;45558;37.752;-97.822;2023-07-13T13:08:43;1.88;;;1.48;;
58460;SDS011;45558;37.752;-97.822;2023-07-13T13:11:13;2.35;;;1.15;;
58460;SDS011;45558;37.752;-97.822;2023-07-13T13:13:41;1.80;;;1.05;;
58460;SDS011;45558;37.752;-97.822;2023-07-13T13:18:54;4.95;;;1.70;;
58460;SDS011;45558;37.752;-97.822;2023-07-13T13:21:23;6.70;;;1.52;;
58460;SDS011;45558;37.752;-97.822;2023-07-13T13:23:51;4.85;;;1.50;;
58460;SDS011;45558;37.752;-97.822;2023-07-13T13:26:18;6.75;;;1.55;;
58460;SDS011;45558;37.752;-97.822;2023-07-13T13:28:44;5.45;;;1.48;;
58460;SDS011;45558;37.752;-97.822;2023-07-13T13:31:11;2.35;;;1.10;;
58460;SDS011;45558;37.752;-97.822;2023-07-13T13:33:38;6.18;;;1.33;;
58460;SDS011;45558;37.752;-97.822;2023-07-13T13:36:18;3.38;;;1.23;;
58460;SDS011;45558;37.752;-97.822;2023-07-13T13:38:45;2.95;;;1.33;;
58460;SDS011;45558;37.752;-97.822;2023-07-13T13:41:12;4.53;;;1.77;;
58460;SDS011;45558;37.752;-97.822;2023-07-13T13:43:39;5.55;;;1.55;;
58460;SDS011;45558;37.752;-97.822;2023-07-13T13:46:11;3.95;;;1.25;;
58460;SDS011;45558;37.752;-97.822;2023-07-13T13:48:49;3.17;;;1.77;;
58460;SDS011;45558;37.752;-97.822;2023-07-13T13:51:20;2.80;;;1.05;;
58460;SDS011;45558;37.752;-97.822;2023-07-13T13:53:47;2.45;;;1.52;;
58460;SDS011;45558;37.752;-97.822;2023-07-13T13:56:13;2.05;;;1.00;;
58460;SDS011;45558;37.752;-97.822;2023-07-13T13:58:54;4.18;;;1.00;;
58460;SDS011;45558;37.752;-97.822;2023-07-13T14:01:20;2.28;;;0.93;;
58460;SDS011;45558;37.752;-97.822;2023-07-13T14:03:48;3.75;;;1.17;;
58460;SDS011;45558;37.752;-97.822;2023-07-13T14:06:14;3.47;;;1.27;;
58460;SDS011;45558;37.752;-97.822;2023-07-13T14:08:41;3.90;;;1.20;;
58460;SDS011;45558;37.752;-97.822;2023-07-13T14:11:07;2.60;;;0.85;;
58460;SDS011;45558;37.752;-97.822;2023-07-13T14:13:43;6.82;;;2.80;;
58460;SDS011;45558;37.752;-97.822;2023-07-13T14:16:12;3.58;;;1.65;;
58460;SDS011;45558;37.752;-97.822;2023-07-13T14:18:42;5.50;;;1.40;;
58460;SDS011;45558;37.752;-97.822;2023-07-13T14:21:19;3.20;;;0.88;;
58460;SDS011;45558;37.752;-97.822;2023-07-13T14:23:46;1.85;;;0.93;;
58460;SDS011;45558;37.752;-97.822;2023-07-13T14:26:15;2.35;;;0.90;;
58460;SDS011;45558;37.752;-97.822;2023-07-13T14:28:53;2.80;;;0.80;;
58460;SDS011;45558;37.752;-97.822;2023-07-13T14:31:20;5.90;;;0.77;;
58460;SDS011;45558;37.752;-97.822;2023-07-13T14:33:46;5.05;;;0.90;;
58460;SDS011;45558;37.752;-97.822;2023-07-13T14:36:29;3.38;;;0.75;;
58460;SDS011;45558;37.752;-97.822;2023-07-13T14:38:58;2.58;;;0.70;;
58460;SDS011;45558;37.752;-97.822;2023-07-13T14:41:25;2.10;;;0.73;;
58460;SDS011;45558;37.752;-97.822;2023-07-13T14:43:51;1.70;;;0.60;;
58460;SDS011;45558;37.752;-97.822;2023-07-13T14:46:34;1.42;;;0.70;;
58460;SDS011;45558;37.752;-97.822;2023-07-13T14:51:40;2.10;;;0.88;;
58460;SDS011;45558;37.752;-97.822;2023-07-13T14:54:08;2.38;;;0.73;;
58460;SDS011;45558;37.752;-97.822;2023-07-13T14:56:34;2.35;;;0.75;;
58460;SDS011;45558;37.752;-97.822;2023-07-13T14:59:00;2.72;;;0.70;;
58460;SDS011;45558;37.752;-97.822;2023-07-13T15:01:29;3.42;;;0.90;;
58460;SDS011;45558;37.752;-97.822;2023-07-13T15:03:56;3.50;;;1.00;;
58460;SDS011;45558;37.752;-97.822;2023-07-13T15:06:23;7.60;;;2.97;;
58460;SDS011;45558;37.752;-97.822;2023-07-13T15:08:48;3.78;;;1.60;;
58460;SDS011;45558;37.752;-97.822;2023-07-13T15:11:14;4.22;;;1.90;;
58460;SDS011;45558;37.752;-97.822;2023-07-13T15:13:40;4.82;;;1.40;;
58460;SDS011;45558;37.752;-97.822;2023-07-13T15:16:16;1.92;;;1.13;;
58460;SDS011;45558;37.752;-97.822;2023-07-13T15:18:44;5.50;;;1.83;;
58460;SDS011;45558;37.752;-97.822;2023-07-13T15:21:11;3.63;;;1.10;;
58460;SDS011;45558;37.752;-97.822;2023-07-13T15:23:39;4.15;;;1.20;;